Etusivu
METAR-TAF:

METAR-TAF

Lentoasemat :

Gafsa, Tunisia

Leveyspiiri: 34-25N, Pituuspiiri: 008-49E, korkeus merenpinnasta: 313 m

Tämänhetkinen sää

Tämä raportti tehtiin 44 minuuttia sitten, kello 23.00 UTC
Tuuli 6 kn pohjoisesta
Lämpötila 31°C
Kosteus 31%
Ilmanpaine 1016 hPa
Näkyvyys: 8000 m

METAR: DTTF 172300Z 36006KT 8000 NSC 31/12 Q1016

Aika: 00:44 (23:44 UTC)

Sääennuste

Tämä raportti tehtiin 2 tuntia ja 44 minuuttia sitten, kello 21.00 UTC
Ennuste voimassa 17. päivästä klo 22 UTC - 18. päivään klo 07 UTC
Tuuli 7 kn koillisesta
Näkyvyys: 8000 m

TAF: DTTF 172100Z 1722/1807 04007KT 8000 NSC

Säähavainnot ja -ennusteet yli 4000 lentoasemalta (METAR- ja TAF-raportit).

Käytössä olevat sääasemat on merkitty karttaan keltaisilla ja punaisilla pisteillä.

Aseta hiiri pisteen päälle nähdäksesi sääaseman nimen.

Klikkaa sitten nähdäksesi säähavainnot ja -ennusteet.

Kartan vaihtaminen: klikkaa mustalla rastilla varustettuja vihreitä pisteitä, niin voit zoomata sisään; viivalla varustettua vihreää pistettä, niin voit zoomata ulos tai vihreitä nuolia, niin pääset viereisille kartoille.


METAR-TAF: